sensor_id;sensor_type;location;lat;lon;timestamp;temperature;humidity
62007;DHT22;47963;53.008;6.754;2022-07-24T00:00:24;17.50;99.90
62007;DHT22;47963;53.008;6.754;2022-07-24T00:02:50;17.50;99.90
62007;DHT22;47963;53.008;6.754;2022-07-24T00:05:15;17.50;99.90
62007;DHT22;47963;53.008;6.754;2022-07-24T00:07:41;17.40;99.90
62007;DHT22;47963;53.008;6.754;2022-07-24T00:10:07;17.40;99.90
62007;DHT22;47963;53.008;6.754;2022-07-24T00:12:33;17.40;99.90
62007;DHT22;47963;53.008;6.754;2022-07-24T00:14:59;17.40;99.90
62007;DHT22;47963;53.008;6.754;2022-07-24T00:17:25;17.40;99.90
62007;DHT22;47963;53.008;6.754;2022-07-24T00:19:50;17.40;99.90
62007;DHT22;47963;53.008;6.754;2022-07-24T00:22:16;17.40;99.90
62007;DHT22;47963;53.008;6.754;2022-07-24T00:24:42;17.40;99.90
62007;DHT22;47963;53.008;6.754;2022-07-24T00:27:07;17.30;99.90
62007;DHT22;47963;53.008;6.754;2022-07-24T00:29:33;17.30;99.90
62007;DHT22;47963;53.008;6.754;2022-07-24T00:31:58;17.30;99.90
62007;DHT22;47963;53.008;6.754;2022-07-24T00:34:24;17.30;99.90
62007;DHT22;47963;53.008;6.754;2022-07-24T00:36:50;17.30;99.90
62007;DHT22;47963;53.008;6.754;2022-07-24T00:39:16;17.30;99.90
62007;DHT22;47963;53.008;6.754;2022-07-24T00:41:42;17.30;99.90
62007;DHT22;47963;53.008;6.754;2022-07-24T00:44:10;17.30;99.90
62007;DHT22;47963;53.008;6.754;2022-07-24T00:46:37;17.20;99.90
62007;DHT22;47963;53.008;6.754;2022-07-24T00:49:06;17.20;99.90
62007;DHT22;47963;53.008;6.754;2022-07-24T00:51:33;17.10;99.90
62007;DHT22;47963;53.008;6.754;2022-07-24T00:53:59;17.20;99.90
62007;DHT22;47963;53.008;6.754;2022-07-24T00:56:25;17.20;99.90
62007;DHT22;47963;53.008;6.754;2022-07-24T00:58:51;17.20;99.90
62007;DHT22;47963;53.008;6.754;2022-07-24T01:01:17;17.10;99.90
62007;DHT22;47963;53.008;6.754;2022-07-24T01:03:44;17.10;99.90
62007;DHT22;47963;53.008;6.754;2022-07-24T01:06:10;17.10;99.90
62007;DHT22;47963;53.008;6.754;2022-07-24T01:08:36;17.10;99.90
62007;DHT22;47963;53.008;6.754;2022-07-24T01:11:03;17.00;99.90
62007;DHT22;47963;53.008;6.754;2022-07-24T01:13:30;17.00;99.90
62007;DHT22;47963;53.008;6.754;2022-07-24T01:15:57;17.00;99.90
62007;DHT22;47963;53.008;6.754;2022-07-24T01:18:22;17.00;99.90
62007;DHT22;47963;53.008;6.754;2022-07-24T01:20:49;17.00;99.90
62007;DHT22;47963;53.008;6.754;2022-07-24T01:23:15;17.00;99.90
62007;DHT22;47963;53.008;6.754;2022-07-24T01:25:41;17.00;99.90
62007;DHT22;47963;53.008;6.754;2022-07-24T01:28:07;17.00;99.90
62007;DHT22;47963;53.008;6.754;2022-07-24T01:30:33;16.90;99.90
62007;DHT22;47963;53.008;6.754;2022-07-24T01:32:59;17.00;99.90
62007;DHT22;47963;53.008;6.754;2022-07-24T01:35:25;17.00;99.90
62007;DHT22;47963;53.008;6.754;2022-07-24T01:37:52;16.90;99.90
62007;DHT22;47963;53.008;6.754;2022-07-24T01:40:19;16.90;99.90
62007;DHT22;47963;53.008;6.754;2022-07-24T01:42:44;17.00;99.90
62007;DHT22;47963;53.008;6.754;2022-07-24T01:45:10;17.00;99.90
62007;DHT22;47963;53.008;6.754;2022-07-24T01:47:36;16.90;99.90
62007;DHT22;47963;53.008;6.754;2022-07-24T01:50:02;16.90;99.90
62007;DHT22;47963;53.008;6.754;2022-07-24T01:52:28;16.90;99.90
62007;DHT22;47963;53.008;6.754;2022-07-24T01:54:54;16.90;99.90
62007;DHT22;47963;53.008;6.754;2022-07-24T01:57:19;16.90;99.90
62007;DHT22;47963;53.008;6.754;2022-07-24T01:59:45;16.80;99.90
62007;DHT22;47963;53.008;6.754;2022-07-24T02:02:11;16.90;99.90
62007;DHT22;47963;53.008;6.754;2022-07-24T02:04:37;16.80;99.90
62007;DHT22;47963;53.008;6.754;2022-07-24T02:07:03;16.80;99.90
62007;DHT22;47963;53.008;6.754;2022-07-24T02:09:29;16.80;99.90
62007;DHT22;47963;53.008;6.754;2022-07-24T02:11:55;16.80;99.90
62007;DHT22;47963;53.008;6.754;2022-07-24T02:14:21;16.80;99.90
62007;DHT22;47963;53.008;6.754;2022-07-24T02:16:47;16.70;99.90
62007;DHT22;47963;53.008;6.754;2022-07-24T02:19:12;16.80;99.90
62007;DHT22;47963;53.008;6.754;2022-07-24T02:21:38;16.70;99.90
62007;DHT22;47963;53.008;6.754;2022-07-24T02:24:04;16.70;99.90
62007;DHT22;47963;53.008;6.754;2022-07-24T02:26:30;16.70;99.90
62007;DHT22;47963;53.008;6.754;2022-07-24T02:28:55;16.70;99.90
62007;DHT22;47963;53.008;6.754;2022-07-24T02:31:21;16.70;99.90
62007;DHT22;47963;53.008;6.754;2022-07-24T02:33:47;16.70;99.90
62007;DHT22;47963;53.008;6.754;2022-07-24T02:36:13;16.60;99.90
62007;DHT22;47963;53.008;6.754;2022-07-24T02:38:40;16.70;99.90
62007;DHT22;47963;53.008;6.754;2022-07-24T02:41:06;16.70;99.90
62007;DHT22;47963;53.008;6.754;2022-07-24T02:43:32;16.70;99.90
62007;DHT22;47963;53.008;6.754;2022-07-24T02:45:57;16.70;99.90
62007;DHT22;47963;53.008;6.754;2022-07-24T02:48:23;16.70;99.90
62007;DHT22;47963;53.008;6.754;2022-07-24T02:50:49;16.60;99.90
62007;DHT22;47963;53.008;6.754;2022-07-24T02:53:15;16.70;99.90
62007;DHT22;47963;53.008;6.754;2022-07-24T02:55:40;16.60;99.90
62007;DHT22;47963;53.008;6.754;2022-07-24T02:58:06;16.70;99.90
62007;DHT22;47963;53.008;6.754;2022-07-24T03:00:32;16.60;99.90
62007;DHT22;47963;53.008;6.754;2022-07-24T03:02:58;16.60;99.90
62007;DHT22;47963;53.008;6.754;2022-07-24T03:05:23;16.60;99.90
62007;DHT22;47963;53.008;6.754;2022-07-24T03:07:49;16.60;99.90
62007;DHT22;47963;53.008;6.754;2022-07-24T03:10:15;16.60;99.90
62007;DHT22;47963;53.008;6.754;2022-07-24T03:12:41;16.60;99.90
62007;DHT22;47963;53.008;6.754;2022-07-24T03:15:08;16.60;99.90
62007;DHT22;47963;53.008;6.754;2022-07-24T03:17:34;16.60;99.90
62007;DHT22;47963;53.008;6.754;2022-07-24T03:19:59;16.60;99.90
62007;DHT22;47963;53.008;6.754;2022-07-24T03:22:25;16.60;99.90
62007;DHT22;47963;53.008;6.754;2022-07-24T03:24:51;16.60;99.90
62007;DHT22;47963;53.008;6.754;2022-07-24T03:27:16;16.60;99.90
62007;DHT22;47963;53.008;6.754;2022-07-24T03:29:42;16.50;99.90
62007;DHT22;47963;53.008;6.754;2022-07-24T03:32:08;16.50;99.90
62007;DHT22;47963;53.008;6.754;2022-07-24T03:34:33;16.50;99.90
62007;DHT22;47963;53.008;6.754;2022-07-24T03:36:59;16.50;99.90
62007;DHT22;47963;53.008;6.754;2022-07-24T03:39:24;16.50;99.90
62007;DHT22;47963;53.008;6.754;2022-07-24T03:41:50;16.50;99.90
62007;DHT22;47963;53.008;6.754;2022-07-24T03:44:16;16.50;99.90
62007;DHT22;47963;53.008;6.754;2022-07-24T03:46:41;16.50;99.90
62007;DHT22;47963;53.008;6.754;2022-07-24T03:49:07;16.50;99.90
62007;DHT22;47963;53.008;6.754;2022-07-24T03:51:33;16.50;99.90
62007;DHT22;47963;53.008;6.754;2022-07-24T03:54:01;16.50;99.90
62007;DHT22;47963;53.008;6.754;2022-07-24T03:56:27;16.50;99.90
62007;DHT22;47963;53.008;6.754;2022-07-24T03:58:53;16.50;99.90
62007;DHT22;47963;53.008;6.754;2022-07-24T04:01:20;16.50;99.90
62007;DHT22;47963;53.008;6.754;2022-07-24T04:03:45;16.50;99.90
62007;DHT22;47963;53.008;6.754;2022-07-24T04:06:11;16.50;99.90
62007;DHT22;47963;53.008;6.754;2022-07-24T04:08:37;16.60;99.90
62007;DHT22;47963;53.008;6.754;2022-07-24T04:11:02;16.60;99.90
62007;DHT22;47963;53.008;6.754;2022-07-24T04:13:29;16.60;99.90
62007;DHT22;47963;53.008;6.754;2022-07-24T04:15:56;16.60;99.90
62007;DHT22;47963;53.008;6.754;2022-07-24T04:18:22;16.60;99.90
62007;DHT22;47963;53.008;6.754;2022-07-24T04:20:49;16.60;99.90
62007;DHT22;47963;53.008;6.754;2022-07-24T04:23:15;16.60;99.90
62007;DHT22;47963;53.008;6.754;2022-07-24T04:25:41;16.60;99.90
62007;DHT22;47963;53.008;6.754;2022-07-24T04:28:07;16.60;99.90
62007;DHT22;47963;53.008;6.754;2022-07-24T04:30:32;16.60;99.90
62007;DHT22;47963;53.008;6.754;2022-07-24T04:32:58;16.60;99.90
62007;DHT22;47963;53.008;6.754;2022-07-24T04:35:24;16.60;99.90
62007;DHT22;47963;53.008;6.754;2022-07-24T04:37:50;16.60;99.90
62007;DHT22;47963;53.008;6.754;2022-07-24T04:40:16;16.70;99.90
62007;DHT22;47963;53.008;6.754;2022-07-24T04:42:41;16.70;99.90
62007;DHT22;47963;53.008;6.754;2022-07-24T04:45:07;16.70;99.90
62007;DHT22;47963;53.008;6.754;2022-07-24T04:47:36;16.60;99.90
62007;DHT22;47963;53.008;6.754;2022-07-24T04:50:02;16.70;99.90
62007;DHT22;47963;53.008;6.754;2022-07-24T04:52:28;16.60;99.90
62007;DHT22;47963;53.008;6.754;2022-07-24T04:54:53;16.60;99.90
62007;DHT22;47963;53.008;6.754;2022-07-24T04:57:19;16.70;99.90
62007;DHT22;47963;53.008;6.754;2022-07-24T04:59:45;16.70;99.90
62007;DHT22;47963;53.008;6.754;2022-07-24T05:02:10;16.80;99.90
62007;DHT22;47963;53.008;6.754;2022-07-24T05:04:36;16.70;99.90
62007;DHT22;47963;53.008;6.754;2022-07-24T05:07:02;16.80;99.90
62007;DHT22;47963;53.008;6.754;2022-07-24T05:09:28;16.80;99.90
62007;DHT22;47963;53.008;6.754;2022-07-24T05:11:54;16.90;99.90
62007;DHT22;47963;53.008;6.754;2022-07-24T05:14:20;16.80;99.90
62007;DHT22;47963;53.008;6.754;2022-07-24T05:16:46;16.90;99.90
62007;DHT22;47963;53.008;6.754;2022-07-24T05:19:11;16.90;99.90
62007;DHT22;47963;53.008;6.754;2022-07-24T05:21:37;16.90;99.90
62007;DHT22;47963;53.008;6.754;2022-07-24T05:24:03;16.90;99.90
62007;DHT22;47963;53.008;6.754;2022-07-24T05:26:30;17.00;99.90
62007;DHT22;47963;53.008;6.754;2022-07-24T05:28:58;17.00;99.90
62007;DHT22;47963;53.008;6.754;2022-07-24T05:31:24;17.10;99.90
62007;DHT22;47963;53.008;6.754;2022-07-24T05:33:49;17.20;99.90
62007;DHT22;47963;53.008;6.754;2022-07-24T05:36:15;17.30;99.90
62007;DHT22;47963;53.008;6.754;2022-07-24T05:38:41;17.40;99.90
62007;DHT22;47963;53.008;6.754;2022-07-24T05:41:06;17.50;99.90
62007;DHT22;47963;53.008;6.754;2022-07-24T05:43:32;17.60;99.90
62007;DHT22;47963;53.008;6.754;2022-07-24T05:45:58;17.70;99.90
62007;DHT22;47963;53.008;6.754;2022-07-24T05:48:23;17.70;99.90
62007;DHT22;47963;53.008;6.754;2022-07-24T05:50:49;17.80;99.90
62007;DHT22;47963;53.008;6.754;2022-07-24T05:53:15;17.80;99.90
62007;DHT22;47963;53.008;6.754;2022-07-24T05:55:40;17.90;99.90
62007;DHT22;47963;53.008;6.754;2022-07-24T05:58:06;18.00;99.90
62007;DHT22;47963;53.008;6.754;2022-07-24T06:00:31;18.00;99.90
62007;DHT22;47963;53.008;6.754;2022-07-24T06:02:57;18.00;99.90
62007;DHT22;47963;53.008;6.754;2022-07-24T06:05:23;18.10;99.90
62007;DHT22;47963;53.008;6.754;2022-07-24T06:07:48;18.20;99.90
62007;DHT22;47963;53.008;6.754;2022-07-24T06:10:14;18.30;99.90
62007;DHT22;47963;53.008;6.754;2022-07-24T06:12:40;18.30;99.90
62007;DHT22;47963;53.008;6.754;2022-07-24T06:15:06;18.30;99.90
62007;DHT22;47963;53.008;6.754;2022-07-24T06:17:32;18.40;99.90
62007;DHT22;47963;53.008;6.754;2022-07-24T06:19:57;18.30;99.90
62007;DHT22;47963;53.008;6.754;2022-07-24T06:22:23;18.30;99.90
62007;DHT22;47963;53.008;6.754;2022-07-24T06:24:49;18.40;99.90
62007;DHT22;47963;53.008;6.754;2022-07-24T06:27:14;18.50;99.90
62007;DHT22;47963;53.008;6.754;2022-07-24T06:29:40;18.40;99.90
62007;DHT22;47963;53.008;6.754;2022-07-24T06:32:06;18.50;99.90
62007;DHT22;47963;53.008;6.754;2022-07-24T06:34:31;18.60;99.90
62007;DHT22;47963;53.008;6.754;2022-07-24T06:36:57;18.60;99.90
62007;DHT22;47963;53.008;6.754;2022-07-24T06:39:23;18.60;99.90
62007;DHT22;47963;53.008;6.754;2022-07-24T06:41:48;18.70;99.90
62007;DHT22;47963;53.008;6.754;2022-07-24T06:44:14;18.90;99.90
62007;DHT22;47963;53.008;6.754;2022-07-24T06:46:40;18.90;99.90
62007;DHT22;47963;53.008;6.754;2022-07-24T06:49:05;19.00;99.90
62007;DHT22;47963;53.008;6.754;2022-07-24T06:51:31;19.00;99.90
62007;DHT22;47963;53.008;6.754;2022-07-24T06:53:56;19.00;99.90
62007;DHT22;47963;53.008;6.754;2022-07-24T06:56:22;18.90;99.90
62007;DHT22;47963;53.008;6.754;2022-07-24T06:58:48;18.90;99.90
62007;DHT22;47963;53.008;6.754;2022-07-24T07:01:13;19.00;99.90
62007;DHT22;47963;53.008;6.754;2022-07-24T07:03:39;19.00;99.90
62007;DHT22;47963;53.008;6.754;2022-07-24T07:06:05;19.00;99.90
62007;DHT22;47963;53.008;6.754;2022-07-24T07:08:31;19.20;99.90
62007;DHT22;47963;53.008;6.754;2022-07-24T07:10:56;19.30;99.90
62007;DHT22;47963;53.008;6.754;2022-07-24T07:13:22;19.30;99.90
62007;DHT22;47963;53.008;6.754;2022-07-24T07:15:47;19.40;99.90
62007;DHT22;47963;53.008;6.754;2022-07-24T07:18:13;19.60;99.90
62007;DHT22;47963;53.008;6.754;2022-07-24T07:20:40;19.60;99.90
62007;DHT22;47963;53.008;6.754;2022-07-24T07:23:06;19.70;99.90
62007;DHT22;47963;53.008;6.754;2022-07-24T07:25:31;19.90;99.90
62007;DHT22;47963;53.008;6.754;2022-07-24T07:27:57;20.00;99.90
62007;DHT22;47963;53.008;6.754;2022-07-24T07:30:23;20.00;99.90
62007;DHT22;47963;53.008;6.754;2022-07-24T07:32:48;20.10;99.90
62007;DHT22;47963;53.008;6.754;2022-07-24T07:35:14;20.20;99.90
62007;DHT22;47963;53.008;6.754;2022-07-24T07:37:40;20.30;99.90
62007;DHT22;47963;53.008;6.754;2022-07-24T07:40:06;20.40;99.90
62007;DHT22;47963;53.008;6.754;2022-07-24T07:42:31;20.60;99.90
62007;DHT22;47963;53.008;6.754;2022-07-24T07:44:57;20.70;99.90
62007;DHT22;47963;53.008;6.754;2022-07-24T07:47:23;20.90;99.90
62007;DHT22;47963;53.008;6.754;2022-07-24T07:49:48;21.10;99.90
62007;DHT22;47963;53.008;6.754;2022-07-24T07:52:14;21.30;99.90
62007;DHT22;47963;53.008;6.754;2022-07-24T07:54:40;21.50;99.90
62007;DHT22;47963;53.008;6.754;2022-07-24T07:57:05;21.50;99.90
62007;DHT22;47963;53.008;6.754;2022-07-24T07:59:31;21.40;99.90
62007;DHT22;47963;53.008;6.754;2022-07-24T08:01:56;21.50;99.90
62007;DHT22;47963;53.008;6.754;2022-07-24T08:04:22;21.40;99.90
62007;DHT22;47963;53.008;6.754;2022-07-24T08:06:48;21.40;99.90
62007;DHT22;47963;53.008;6.754;2022-07-24T08:09:13;21.30;99.90
62007;DHT22;47963;53.008;6.754;2022-07-24T08:11:39;21.30;99.90
62007;DHT22;47963;53.008;6.754;2022-07-24T08:14:05;21.40;99.90
62007;DHT22;47963;53.008;6.754;2022-07-24T08:16:30;21.50;99.90
62007;DHT22;47963;53.008;6.754;2022-07-24T08:18:56;21.70;99.90
62007;DHT22;47963;53.008;6.754;2022-07-24T08:21:21;21.90;99.90
62007;DHT22;47963;53.008;6.754;2022-07-24T08:23:47;22.00;99.90
62007;DHT22;47963;53.008;6.754;2022-07-24T08:26:14;22.00;99.90
62007;DHT22;47963;53.008;6.754;2022-07-24T08:28:40;22.20;99.90
62007;DHT22;47963;53.008;6.754;2022-07-24T08:31:06;22.30;99.90
62007;DHT22;47963;53.008;6.754;2022-07-24T08:33:31;22.40;99.90
62007;DHT22;47963;53.008;6.754;2022-07-24T08:35:57;22.60;99.90
62007;DHT22;47963;53.008;6.754;2022-07-24T08:38:23;22.80;99.90
62007;DHT22;47963;53.008;6.754;2022-07-24T08:40:50;22.80;99.90
62007;DHT22;47963;53.008;6.754;2022-07-24T08:43:16;22.90;99.90
62007;DHT22;47963;53.008;6.754;2022-07-24T08:45:42;22.90;99.90
62007;DHT22;47963;53.008;6.754;2022-07-24T08:48:10;22.90;99.90
62007;DHT22;47963;53.008;6.754;2022-07-24T08:50:38;22.70;99.90
62007;DHT22;47963;53.008;6.754;2022-07-24T08:53:05;22.70;99.90
62007;DHT22;47963;53.008;6.754;2022-07-24T08:55:31;22.70;99.90
62007;DHT22;47963;53.008;6.754;2022-07-24T08:57:58;22.60;99.90
62007;DHT22;47963;53.008;6.754;2022-07-24T09:00:25;22.60;99.90
62007;DHT22;47963;53.008;6.754;2022-07-24T09:02:51;22.60;99.90
62007;DHT22;47963;53.008;6.754;2022-07-24T09:05:16;22.70;99.90
62007;DHT22;47963;53.008;6.754;2022-07-24T09:07:42;22.70;99.90
62007;DHT22;47963;53.008;6.754;2022-07-24T09:10:11;22.70;99.90
62007;DHT22;47963;53.008;6.754;2022-07-24T09:12:39;22.70;99.90
62007;DHT22;47963;53.008;6.754;2022-07-24T09:15:19;22.80;99.90
62007;DHT22;47963;53.008;6.754;2022-07-24T09:20:14;23.20;99.90
62007;DHT22;47963;53.008;6.754;2022-07-24T09:22:41;23.30;99.90
62007;DHT22;47963;53.008;6.754;2022-07-24T09:27:39;23.50;99.90
62007;DHT22;47963;53.008;6.754;2022-07-24T09:30:06;23.50;99.90
62007;DHT22;47963;53.008;6.754;2022-07-24T09:32:32;23.50;99.90
62007;DHT22;47963;53.008;6.754;2022-07-24T09:34:58;23.80;99.90
62007;DHT22;47963;53.008;6.754;2022-07-24T09:37:26;23.90;99.90
62007;DHT22;47963;53.008;6.754;2022-07-24T09:39:53;24.20;99.90
62007;DHT22;47963;53.008;6.754;2022-07-24T09:42:30;24.00;99.90
62007;DHT22;47963;53.008;6.754;2022-07-24T09:44:58;23.70;99.90
62007;DHT22;47963;53.008;6.754;2022-07-24T09:47:25;23.60;99.90
62007;DHT22;47963;53.008;6.754;2022-07-24T09:49:55;23.80;99.90
62007;DHT22;47963;53.008;6.754;2022-07-24T09:52:35;24.00;99.90
62007;DHT22;47963;53.008;6.754;2022-07-24T09:55:02;24.20;99.90
62007;DHT22;47963;53.008;6.754;2022-07-24T09:57:29;24.10;99.90
62007;DHT22;47963;53.008;6.754;2022-07-24T09:59:58;24.30;99.90
62007;DHT22;47963;53.008;6.754;2022-07-24T10:02:26;24.30;99.90
62007;DHT22;47963;53.008;6.754;2022-07-24T10:04:53;24.60;99.90
62007;DHT22;47963;53.008;6.754;2022-07-24T10:07:21;24.70;99.90
62007;DHT22;47963;53.008;6.754;2022-07-24T10:09:49;24.80;99.90
62007;DHT22;47963;53.008;6.754;2022-07-24T10:12:23;24.80;99.90
62007;DHT22;47963;53.008;6.754;2022-07-24T10:14:52;24.90;99.90
62007;DHT22;47963;53.008;6.754;2022-07-24T10:17:18;25.00;99.90
62007;DHT22;47963;53.008;6.754;2022-07-24T10:19:49;24.90;98.90
62007;DHT22;47963;53.008;6.754;2022-07-24T10:22:18;25.00;99.90
62007;DHT22;47963;53.008;6.754;2022-07-24T10:25:13;25.10;99.90
62007;DHT22;47963;53.008;6.754;2022-07-24T10:27:44;25.10;99.90
62007;DHT22;47963;53.008;6.754;2022-07-24T10:30:13;25.30;99.20
62007;DHT22;47963;53.008;6.754;2022-07-24T10:32:39;25.40;99.90
62007;DHT22;47963;53.008;6.754;2022-07-24T10:35:12;25.30;97.90
62007;DHT22;47963;53.008;6.754;2022-07-24T10:45:34;25.40;96.00
62007;DHT22;47963;53.008;6.754;2022-07-24T10:51:12;25.20;98.60
62007;DHT22;47963;53.008;6.754;2022-07-24T10:53:53;25.10;99.90
62007;DHT22;47963;53.008;6.754;2022-07-24T11:01:39;26.00;94.90
62007;DHT22;47963;53.008;6.754;2022-07-24T11:07:10;26.10;93.00
62007;DHT22;47963;53.008;6.754;2022-07-24T11:09:59;25.80;94.70
62007;DHT22;47963;53.008;6.754;2022-07-24T11:12:32;25.80;97.90
62007;DHT22;47963;53.008;6.754;2022-07-24T11:14:59;25.50;95.30
62007;DHT22;47963;53.008;6.754;2022-07-24T11:17:45;25.40;95.30
62007;DHT22;47963;53.008;6.754;2022-07-24T11:20:17;25.20;93.90
62007;DHT22;47963;53.008;6.754;2022-07-24T11:22:49;25.00;92.60
62007;DHT22;47963;53.008;6.754;2022-07-24T11:25:21;25.00;94.70
62007;DHT22;47963;53.008;6.754;2022-07-24T11:27:56;25.50;99.90
62007;DHT22;47963;53.008;6.754;2022-07-24T11:30:27;25.70;96.90
62007;DHT22;47963;53.008;6.754;2022-07-24T11:32:53;26.00;97.80
62007;DHT22;47963;53.008;6.754;2022-07-24T11:35:33;26.30;98.70
62007;DHT22;47963;53.008;6.754;2022-07-24T11:38:02;26.40;97.90
62007;DHT22;47963;53.008;6.754;2022-07-24T11:40:28;26.50;92.60
62007;DHT22;47963;53.008;6.754;2022-07-24T11:43:02;26.50;91.80
62007;DHT22;47963;53.008;6.754;2022-07-24T11:45:28;26.60;90.60
62007;DHT22;47963;53.008;6.754;2022-07-24T11:47:54;26.60;95.80
62007;DHT22;47963;53.008;6.754;2022-07-24T11:50:25;26.40;92.90
62007;DHT22;47963;53.008;6.754;2022-07-24T11:52:52;26.70;92.40
62007;DHT22;47963;53.008;6.754;2022-07-24T11:55:21;26.70;90.80
62007;DHT22;47963;53.008;6.754;2022-07-24T11:57:52;26.90;92.00
62007;DHT22;47963;53.008;6.754;2022-07-24T12:00:21;27.10;93.10
62007;DHT22;47963;53.008;6.754;2022-07-24T12:02:50;26.70;82.30
62007;DHT22;47963;53.008;6.754;2022-07-24T12:05:30;26.60;78.00
62007;DHT22;47963;53.008;6.754;2022-07-24T12:07:58;26.70;86.40
62007;DHT22;47963;53.008;6.754;2022-07-24T12:10:25;26.70;84.50
62007;DHT22;47963;53.008;6.754;2022-07-24T12:12:52;26.70;82.40
62007;DHT22;47963;53.008;6.754;2022-07-24T12:15:20;26.70;86.60
62007;DHT22;47963;53.008;6.754;2022-07-24T12:20:22;26.80;84.70
62007;DHT22;47963;53.008;6.754;2022-07-24T12:22:48;27.00;86.50
62007;DHT22;47963;53.008;6.754;2022-07-24T12:25:14;27.30;87.80
62007;DHT22;47963;53.008;6.754;2022-07-24T12:27:42;27.50;90.30
62007;DHT22;47963;53.008;6.754;2022-07-24T12:35:56;27.10;78.00
62007;DHT22;47963;53.008;6.754;2022-07-24T12:38:31;27.20;81.10
62007;DHT22;47963;53.008;6.754;2022-07-24T12:41:12;27.10;78.90
62007;DHT22;47963;53.008;6.754;2022-07-24T12:44:04;27.50;82.40
62007;DHT22;47963;53.008;6.754;2022-07-24T12:51:54;27.90;78.00
62007;DHT22;47963;53.008;6.754;2022-07-24T12:56:57;27.90;75.30
62007;DHT22;47963;53.008;6.754;2022-07-24T13:02:02;28.10;78.00
62007;DHT22;47963;53.008;6.754;2022-07-24T13:04:28;28.00;74.90
62007;DHT22;47963;53.008;6.754;2022-07-24T13:07:00;28.00;73.80
62007;DHT22;47963;53.008;6.754;2022-07-24T13:09:26;28.00;71.10
62007;DHT22;47963;53.008;6.754;2022-07-24T13:11:53;28.00;74.50
62007;DHT22;47963;53.008;6.754;2022-07-24T13:14:21;28.20;73.90
62007;DHT22;47963;53.008;6.754;2022-07-24T13:16:49;28.10;69.20
62007;DHT22;47963;53.008;6.754;2022-07-24T13:19:16;27.90;68.30
62007;DHT22;47963;53.008;6.754;2022-07-24T13:21:43;28.10;71.60
62007;DHT22;47963;53.008;6.754;2022-07-24T13:24:11;28.20;71.20
62007;DHT22;47963;53.008;6.754;2022-07-24T13:26:38;28.30;73.10
62007;DHT22;47963;53.008;6.754;2022-07-24T13:29:04;28.60;72.70
62007;DHT22;47963;53.008;6.754;2022-07-24T13:31:30;28.40;63.00
62007;DHT22;47963;53.008;6.754;2022-07-24T13:33:56;28.40;61.40
62007;DHT22;47963;53.008;6.754;2022-07-24T13:36:22;28.50;62.50
62007;DHT22;47963;53.008;6.754;2022-07-24T13:38:47;28.80;70.20
62007;DHT22;47963;53.008;6.754;2022-07-24T13:41:14;28.90;68.80
62007;DHT22;47963;53.008;6.754;2022-07-24T13:43:40;28.80;62.70
62007;DHT22;47963;53.008;6.754;2022-07-24T13:46:05;28.70;66.50
62007;DHT22;47963;53.008;6.754;2022-07-24T13:48:31;28.80;66.90
62007;DHT22;47963;53.008;6.754;2022-07-24T13:50:57;29.10;64.60
62007;DHT22;47963;53.008;6.754;2022-07-24T13:53:23;29.10;68.00
62007;DHT22;47963;53.008;6.754;2022-07-24T13:55:49;29.10;65.60
62007;DHT22;47963;53.008;6.754;2022-07-24T13:58:15;29.20;67.60
62007;DHT22;47963;53.008;6.754;2022-07-24T14:00:41;29.30;63.80
62007;DHT22;47963;53.008;6.754;2022-07-24T14:03:07;29.00;62.80
62007;DHT22;47963;53.008;6.754;2022-07-24T14:05:32;29.10;64.50
62007;DHT22;47963;53.008;6.754;2022-07-24T14:07:58;29.30;62.30
62007;DHT22;47963;53.008;6.754;2022-07-24T14:10:24;29.30;63.00
62007;DHT22;47963;53.008;6.754;2022-07-24T14:12:50;29.60;65.60
62007;DHT22;47963;53.008;6.754;2022-07-24T14:15:16;29.50;61.80
62007;DHT22;47963;53.008;6.754;2022-07-24T14:17:42;29.90;62.60
62007;DHT22;47963;53.008;6.754;2022-07-24T14:20:10;29.80;62.80
62007;DHT22;47963;53.008;6.754;2022-07-24T14:22:37;29.90;63.60
62007;DHT22;47963;53.008;6.754;2022-07-24T14:25:04;30.10;65.20
62007;DHT22;47963;53.008;6.754;2022-07-24T14:27:30;29.90;61.40
62007;DHT22;47963;53.008;6.754;2022-07-24T14:29:57;30.10;62.60
62007;DHT22;47963;53.008;6.754;2022-07-24T14:32:23;30.00;65.00
62007;DHT22;47963;53.008;6.754;2022-07-24T14:34:48;30.20;63.60
62007;DHT22;47963;53.008;6.754;2022-07-24T14:37:14;29.90;60.60
62007;DHT22;47963;53.008;6.754;2022-07-24T14:39:40;29.80;63.10
62007;DHT22;47963;53.008;6.754;2022-07-24T14:42:06;29.60;60.10
62007;DHT22;47963;53.008;6.754;2022-07-24T14:44:32;29.90;63.00
62007;DHT22;47963;53.008;6.754;2022-07-24T14:46:58;30.10;61.30
62007;DHT22;47963;53.008;6.754;2022-07-24T14:51:53;30.70;59.70
62007;DHT22;47963;53.008;6.754;2022-07-24T14:54:18;30.50;59.80
62007;DHT22;47963;53.008;6.754;2022-07-24T14:56:44;30.60;62.80
62007;DHT22;47963;53.008;6.754;2022-07-24T14:59:10;30.00;56.40
62007;DHT22;47963;53.008;6.754;2022-07-24T15:01:36;30.60;61.00
62007;DHT22;47963;53.008;6.754;2022-07-24T15:04:01;31.10;61.80
62007;DHT22;47963;53.008;6.754;2022-07-24T15:06:28;30.70;59.00
62007;DHT22;47963;53.008;6.754;2022-07-24T15:08:54;31.10;62.00
62007;DHT22;47963;53.008;6.754;2022-07-24T15:11:20;31.20;62.50
62007;DHT22;47963;53.008;6.754;2022-07-24T15:13:49;31.00;59.20
62007;DHT22;47963;53.008;6.754;2022-07-24T15:16:15;30.30;54.80
62007;DHT22;47963;53.008;6.754;2022-07-24T15:18:41;30.00;61.80
62007;DHT22;47963;53.008;6.754;2022-07-24T15:21:06;30.00;59.40
62007;DHT22;47963;53.008;6.754;2022-07-24T15:23:33;30.00;64.60
62007;DHT22;47963;53.008;6.754;2022-07-24T15:25:59;29.80;61.70
62007;DHT22;47963;53.008;6.754;2022-07-24T15:28:25;29.40;59.80
62007;DHT22;47963;53.008;6.754;2022-07-24T15:30:52;29.40;60.90
62007;DHT22;47963;53.008;6.754;2022-07-24T15:33:18;29.50;66.90
62007;DHT22;47963;53.008;6.754;2022-07-24T15:35:44;29.60;67.90
62007;DHT22;47963;53.008;6.754;2022-07-24T15:38:09;29.50;64.40
62007;DHT22;47963;53.008;6.754;2022-07-24T15:40:35;29.30;63.20
62007;DHT22;47963;53.008;6.754;2022-07-24T15:43:01;29.10;64.30
62007;DHT22;47963;53.008;6.754;2022-07-24T15:45:27;28.90;63.50
62007;DHT22;47963;53.008;6.754;2022-07-24T15:47:53;28.80;64.90
62007;DHT22;47963;53.008;6.754;2022-07-24T15:50:19;29.10;69.00
62007;DHT22;47963;53.008;6.754;2022-07-24T15:52:45;29.00;65.20
62007;DHT22;47963;53.008;6.754;2022-07-24T15:55:11;29.00;66.40
62007;DHT22;47963;53.008;6.754;2022-07-24T15:57:37;28.70;63.40
62007;DHT22;47963;53.008;6.754;2022-07-24T16:00:04;28.70;64.90
62007;DHT22;47963;53.008;6.754;2022-07-24T16:02:30;28.70;68.30
62007;DHT22;47963;53.008;6.754;2022-07-24T16:04:55;28.80;69.40
62007;DHT22;47963;53.008;6.754;2022-07-24T16:07:22;28.80;68.00
62007;DHT22;47963;53.008;6.754;2022-07-24T16:09:49;28.60;66.60
62007;DHT22;47963;53.008;6.754;2022-07-24T16:12:16;28.50;66.20